^^
Marion, Virginia Banner
 

Adwolf, VA. Station Historical Data
[ Providing Data Since 6/07/2007 ]
Station Historical Data
Daily Summary for December 6, 2017 Units:  Both    English   Metric
« Previous Day
Next Day »
Daily Weekly Monthly Yearly Custom
  High: Low: Average:
Temperature: 47.5 °F /  8.6 °C 29.8 °F /  -1.2 °C 34.4 °F /  1.3 °C
Dew Point: 45.0 °F /  7.2 °C 20.7 °F /  -6.3 °C 26 °F /  -3.3 °C
Humidity: 92% 55% 72%
Wind Speed: 11.5mph /  18.5km/h - 4.7mph /  7.6km/h
Wind Gust: 11.5mph /  18.5km/h - -
Wind- - WSW
Pressure: 30.23 in /  1023.6 hPa 30.06 in /  1017.8 hPa -
Precipitation: 0.02 in /  0.51 mm    
Historical Graphs
 
 
Tabular Data for December 6, 2017
Time Temperature Dew Point Pressure Wind Wind Speed Wind Gust Humidity Rainfall Rate (Hourly) solar Conditions
00:02 47.5 °F /  8.6 °C 45.0 °F /  7.2 °C 30.06in /  1017.8hPa WSW 5.8mph /  9.3km/h 5.8mph /  9.3km/h 91% 0.01in /  0.25mm WeatherDisplay:10.37 W/m2 -RA
00:07 47.3 °F /  8.5 °C 44.8 °F /  7.1 °C 30.07in /  1018.2hPa West 3.5mph /  5.6km/h 3.5mph /  5.6km/h 91% 0.01in /  0.25mm WeatherDisplay:10.37 W/m2 -RA
00:12 47.1 °F /  8.4 °C 44.6 °F /  7 °C 30.07in /  1018.2hPa WSW 3.5mph /  5.6km/h 3.5mph /  5.6km/h 91% 0.01in /  0.25mm WeatherDisplay:10.37 W/m2 RA
00:17 46.8 °F /  8.2 °C 44.0 °F /  6.7 °C 30.07in /  1018.2hPa North 6.0mph /  9.7km/h 6.0mph /  9.7km/h 90% 0.01in /  0.25mm WeatherDisplay:10.37 W/m2 OVC
00:22 45.7 °F /  7.6 °C 42.3 °F /  5.7 °C 30.08in /  1018.5hPa North 8.1mph /  13km/h 8.1mph /  13km/h 88% 0.01in /  0.25mm WeatherDisplay:10.37 W/m2 OVC
00:27 44.6 °F /  7 °C 41.3 °F /  5.2 °C 30.08in /  1018.5hPa NNW 8.1mph /  13km/h 8.1mph /  13km/h 88% 0.01in /  0.25mm WeatherDisplay:10.37 W/m2 OVC
00:32 43.6 °F /  6.4 °C 40.0 °F /  4.4 °C 30.09in /  1018.8hPa NNE 10.4mph /  16.7km/h 10.4mph /  16.7km/h 87% 0.01in /  0.25mm WeatherDisplay:10.37 W/m2 OVC
00:37 42.6 °F /  5.9 °C 39.6 °F /  4.2 °C 30.09in /  1018.8hPa North 8.1mph /  13km/h 8.1mph /  13km/h 89% 0.01in /  0.25mm WeatherDisplay:10.37 W/m2 OVC
00:42 42.0 °F /  5.6 °C 39.0 °F /  3.9 °C 30.09in /  1018.8hPa North 8.1mph /  13km/h 8.1mph /  13km/h 89% 0.01in /  0.25mm WeatherDisplay:10.37 W/m2 OVC
00:47 41.6 °F /  5.3 °C 38.6 °F /  3.7 °C 30.10in /  1019.2hPa NW 5.8mph /  9.3km/h 5.8mph /  9.3km/h 89% 0.01in /  0.25mm WeatherDisplay:10.37 W/m2 OVC
00:52 41.2 °F /  5.1 °C 38.2 °F /  3.4 °C 30.11in /  1019.5hPa North 3.5mph /  5.6km/h 3.5mph /  5.6km/h 89% 0.01in /  0.25mm WeatherDisplay:10.37 W/m2 OVC
00:57 40.8 °F /  4.9 °C 37.8 °F /  3.2 °C 30.10in /  1019.2hPa North 5.0mph /  8km/h 5.0mph /  8km/h 89% 0.01in /  0.25mm WeatherDisplay:10.37 W/m2 OVC
01:02 40.5 °F /  4.7 °C 37.5 °F /  3.1 °C 30.12in /  1019.9hPa WNW 4.6mph /  7.4km/h 4.6mph /  7.4km/h 89% 0.01in /  0.25mm WeatherDisplay:10.37 W/m2 OVC
01:07 40.2 °F /  4.6 °C 37.5 °F /  3.1 °C 30.12in /  1019.9hPa North 4.6mph /  7.4km/h 4.6mph /  7.4km/h 90% 0.01in /  0.25mm WeatherDisplay:10.37 W/m2 OVC
01:12 39.8 °F /  4.3 °C 37.1 °F /  2.8 °C 30.11in /  1019.5hPa North 4.0mph /  6.4km/h 4.0mph /  6.4km/h 90% 0.00in /  0mm WeatherDisplay:10.37 W/m2 OVC
01:17 39.7 °F /  4.3 °C 37.3 °F /  2.9 °C 30.12in /  1019.9hPa NW 4.6mph /  7.4km/h 4.6mph /  7.4km/h 91% 0.00in /  0mm WeatherDisplay:10.37 W/m2 OVC
01:22 39.5 °F /  4.2 °C 37.1 °F /  2.8 °C 30.13in /  1020.2hPa WNW 3.5mph /  5.6km/h 3.5mph /  5.6km/h 91% 0.00in /  0mm WeatherDisplay:10.37 W/m2 OVC
01:27 39.4 °F /  4.1 °C 37.0 °F /  2.8 °C 30.13in /  1020.2hPa North 2.3mph /  3.7km/h 2.3mph /  3.7km/h 91% 0.00in /  0mm WeatherDisplay:10.37 W/m2 OVC
01:32 39.3 °F /  4.1 °C 36.9 °F /  2.7 °C 30.13in /  1020.2hPa North 3.5mph /  5.6km/h 3.5mph /  5.6km/h 91% 0.00in /  0mm WeatherDisplay:10.37 W/m2 OVC
01:37 39.2 °F /  4 °C 36.8 °F /  2.7 °C 30.13in /  1020.2hPa North 3.5mph /  5.6km/h 3.5mph /  5.6km/h 91% 0.01in /  0.25mm WeatherDisplay:10.37 W/m2 RA
01:42 39.1 °F /  3.9 °C 37.0 °F /  2.8 °C 30.13in /  1020.2hPa NNW 1.2mph /  1.9km/h 1.2mph /  1.9km/h 92% 0.01in /  0.25mm WeatherDisplay:10.37 W/m2 RA
01:47 38.8 °F /  3.8 °C 36.4 °F /  2.4 °C 30.14in /  1020.5hPa NW 1.2mph /  1.9km/h 1.2mph /  1.9km/h 91% 0.01in /  0.25mm WeatherDisplay:10.37 W/m2 RA
01:52 38.5 °F /  3.6 °C 36.4 °F /  2.4 °C 30.14in /  1020.5hPa North 5.0mph /  8km/h 5.0mph /  8km/h 92% 0.01in /  0.25mm WeatherDisplay:10.37 W/m2 OVC
01:57 38.2 °F /  3.4 °C 36.1 °F /  2.3 °C 30.14in /  1020.5hPa North 4.6mph /  7.4km/h 4.6mph /  7.4km/h 92% 0.01in /  0.25mm WeatherDisplay:10.37 W/m2 OVC
02:02 38.0 °F /  3.3 °C 35.9 °F /  2.2 °C 30.14in /  1020.5hPa NNE 4.6mph /  7.4km/h 4.6mph /  7.4km/h 92% 0.02in /  0.51mm WeatherDisplay:10.37 W/m2 RA
02:07 37.9 °F /  3.3 °C 35.8 °F /  2.1 °C 30.15in /  1020.9hPa NNE 3.5mph /  5.6km/h 3.5mph /  5.6km/h 92% 0.02in /  0.51mm WeatherDisplay:10.37 W/m2 RA
02:12 37.9 °F /  3.3 °C 35.8 °F /  2.1 °C 30.15in /  1020.9hPa NNE 2.3mph /  3.7km/h   92% 0.02in /  0.51mm WeatherDisplay:10.37 W/m2 OVC
02:17 37.8 °F /  3.2 °C 35.7 °F /  2.1 °C 30.15in /  1020.9hPa NNE 1.2mph /  1.9km/h   92% 0.02in /  0.51mm WeatherDisplay:10.37 W/m2 -DZ
02:22 37.7 °F /  3.2 °C 35.6 °F /  2 °C 30.14in /  1020.5hPa Calm     92% 0.02in /  0.51mm WeatherDisplay:10.37 W/m2 -DZ
02:27 37.7 °F /  3.2 °C 35.6 °F /  2 °C 30.14in /  1020.5hPa Calm     92% 0.02in /  0.51mm WeatherDisplay:10.37 W/m2 OVC
02:32 37.4 °F /  3 °C 35.0 °F /  1.7 °C 30.14in /  1020.5hPa Calm     91% 0.02in /  0.51mm WeatherDisplay:10.37 W/m2 OVC
02:37 37.4 °F /  3 °C 35.0 °F /  1.7 °C 30.14in /  1020.5hPa Calm     91% 0.02in /  0.51mm WeatherDisplay:10.37 W/m2 OVC
02:42 37.3 °F /  2.9 °C 34.6 °F /  1.4 °C 30.14in /  1020.5hPa Calm     90% 0.02in /  0.51mm WeatherDisplay:10.37 W/m2 OVC
02:47 37.2 °F /  2.9 °C 34.8 °F /  1.6 °C 30.14in /  1020.5hPa Calm     91% 0.02in /  0.51mm WeatherDisplay:10.37 W/m2 OVC
02:52 37.3 °F /  2.9 °C 34.9 °F /  1.6 °C 30.14in /  1020.5hPa Calm     91% 0.01in /  0.25mm WeatherDisplay:10.37 W/m2 OVC
02:57 37.3 °F /  2.9 °C 34.9 °F /  1.6 °C 30.14in /  1020.5hPa West 1.0mph /  1.6km/h 1.0mph /  1.6km/h 91% 0.01in /  0.25mm WeatherDisplay:10.37 W/m2 OVC
03:02 37.0 °F /  2.8 °C 34.1 °F /  1.2 °C 30.15in /  1020.9hPa North 2.3mph /  3.7km/h 2.3mph /  3.7km/h 89% 0.01in /  0.25mm WeatherDisplay:10.37 W/m2 OVC
03:07 36.6 °F /  2.6 °C 33.1 °F /  0.6 °C 30.15in /  1020.9hPa WNW 2.3mph /  3.7km/h 2.3mph /  3.7km/h 87% 0.01in /  0.25mm WeatherDisplay:10.37 W/m2 OVC
03:12 36.4 °F /  2.4 °C 32.9 °F /  0.5 °C 30.14in /  1020.5hPa WNW 2.3mph /  3.7km/h 2.3mph /  3.7km/h 87% 0.01in /  0.25mm WeatherDisplay:10.37 W/m2 OVC
03:17 36.1 °F /  2.3 °C 31.7 °F /  -0.2 °C 30.14in /  1020.5hPa North 2.3mph /  3.7km/h 2.3mph /  3.7km/h 84% 0.00in /  0mm WeatherDisplay:10.37 W/m2 BKN
03:22 35.9 °F /  2.2 °C 30.6 °F /  -0.8 °C 30.14in /  1020.5hPa West 3.5mph /  5.6km/h 3.5mph /  5.6km/h 81% 0.00in /  0mm WeatherDisplay:10.37 W/m2 BKN
03:27 35.7 °F /  2.1 °C 30.7 °F /  -0.7 °C 30.14in /  1020.5hPa WNW 3.5mph /  5.6km/h 3.5mph /  5.6km/h 82% 0.00in /  0mm WeatherDisplay:10.37 W/m2 BKN
03:32 35.5 °F /  1.9 °C 30.2 °F /  -1 °C 30.14in /  1020.5hPa WNW 2.3mph /  3.7km/h 2.3mph /  3.7km/h 81% 0.00in /  0mm WeatherDisplay:10.37 W/m2 BKN
03:37 35.3 °F /  1.8 °C 30.7 °F /  -0.7 °C 30.14in /  1020.5hPa WNW 2.3mph /  3.7km/h 2.3mph /  3.7km/h 83% 0.00in /  0mm WeatherDisplay:10.37 W/m2 BKN
03:42 35.1 °F /  1.7 °C 30.5 °F /  -0.8 °C 30.14in /  1020.5hPa WNW 2.3mph /  3.7km/h 2.3mph /  3.7km/h 83% 0.00in /  0mm WeatherDisplay:10.37 W/m2 BKN
03:43 35.0 °F /  1.7 °C 30.4 °F /  -0.9 °C 30.14in /  1020.5hPa WNW 2.3mph /  3.7km/h 2.3mph /  3.7km/h 83% 0.00in /  0mm WeatherDisplay:10.37 W/m2 SCT
03:48 34.8 °F /  1.6 °C 29.9 °F /  -1.2 °C 30.14in /  1020.5hPa WNW 2.3mph /  3.7km/h 2.3mph /  3.7km/h 82% 0.00in /  0mm WeatherDisplay:10.37 W/m2 SCT
03:53 34.6 °F /  1.4 °C 29.4 °F /  -1.4 °C 30.14in /  1020.5hPa WNW 3.0mph /  4.8km/h 3.0mph /  4.8km/h 81% 0.00in /  0mm WeatherDisplay:10.37 W/m2 SCT
03:58 34.3 °F /  1.3 °C 28.8 °F /  -1.8 °C 30.14in /  1020.5hPa WNW 3.5mph /  5.6km/h 3.5mph /  5.6km/h 80% 0.00in /  0mm WeatherDisplay:10.37 W/m2 SCT
04:03 34.1 °F /  1.2 °C 28.3 °F /  -2.1 °C 30.14in /  1020.5hPa WNW 3.5mph /  5.6km/h 3.5mph /  5.6km/h 79% 0.00in /  0mm WeatherDisplay:10.37 W/m2 SCT
04:08 34.0 °F /  1.1 °C 28.8 °F /  -1.8 °C 30.15in /  1020.9hPa WNW 3.5mph /  5.6km/h 3.5mph /  5.6km/h 81% 0.00in /  0mm WeatherDisplay:10.37 W/m2 SCT
04:13 33.8 °F /  1 °C 28.3 °F /  -2.1 °C 30.15in /  1020.9hPa WNW 3.0mph /  4.8km/h 3.0mph /  4.8km/h 80% 0.00in /  0mm WeatherDisplay:10.37 W/m2 SCT
04:18 33.7 °F /  0.9 °C 28.8 °F /  -1.8 °C 30.15in /  1020.9hPa WNW 2.3mph /  3.7km/h 2.3mph /  3.7km/h 82% 0.00in /  0mm WeatherDisplay:10.37 W/m2 SCT
04:23 33.6 °F /  0.9 °C 28.4 °F /  -2 °C 30.15in /  1020.9hPa WNW 2.3mph /  3.7km/h 2.3mph /  3.7km/h 81% 0.00in /  0mm WeatherDisplay:10.37 W/m2 SCT
04:28 33.4 °F /  0.8 °C 27.9 °F /  -2.3 °C 30.15in /  1020.9hPa WNW 2.3mph /  3.7km/h 2.3mph /  3.7km/h 80% 0.00in /  0mm WeatherDisplay:10.37 W/m2 SCT
04:33 33.3 °F /  0.7 °C 28.1 °F /  -2.2 °C 30.15in /  1020.9hPa WNW 2.3mph /  3.7km/h 2.3mph /  3.7km/h 81% 0.00in /  0mm WeatherDisplay:10.37 W/m2 SCT
04:38 33.1 °F /  0.6 °C 27.9 °F /  -2.3 °C 30.16in /  1021.2hPa WNW 2.3mph /  3.7km/h 2.3mph /  3.7km/h 81% 0.00in /  0mm WeatherDisplay:10.37 W/m2 SCT
04:43 33.0 °F /  0.6 °C 27.8 °F /  -2.3 °C 30.16in /  1021.2hPa WNW 2.3mph /  3.7km/h 2.3mph /  3.7km/h 81% 0.00in /  0mm WeatherDisplay:10.37 W/m2 OVC
04:48 33.0 °F /  0.6 °C 28.1 °F /  -2.2 °C 30.16in /  1021.2hPa West 3.0mph /  4.8km/h 3.0mph /  4.8km/h 82% 0.00in /  0mm WeatherDisplay:10.37 W/m2 OVC
04:53 33.1 °F /  0.6 °C 28.5 °F /  -1.9 °C 30.16in /  1021.2hPa WNW 3.5mph /  5.6km/h 3.5mph /  5.6km/h 83% 0.00in /  0mm WeatherDisplay:10.37 W/m2 OVC
04:58 33.2 °F /  0.7 °C 28.6 °F /  -1.9 °C 30.17in /  1021.6hPa WNW 3.5mph /  5.6km/h 3.5mph /  5.6km/h 83% 0.00in /  0mm WeatherDisplay:10.37 W/m2 OVC
05:03 33.2 °F /  0.7 °C 28.6 °F /  -1.9 °C 30.17in /  1021.6hPa West 3.0mph /  4.8km/h 3.0mph /  4.8km/h 83% 0.00in /  0mm WeatherDisplay:10.37 W/m2 OVC
05:08 33.2 °F /  0.7 °C 27.4 °F /  -2.6 °C 30.17in /  1021.6hPa WSW 5.8mph /  9.3km/h 5.8mph /  9.3km/h 79% 0.00in /  0mm WeatherDisplay:10.37 W/m2 OVC
05:13 33.1 °F /  0.6 °C 27.3 °F /  -2.6 °C 30.17in /  1021.6hPa SW 5.8mph /  9.3km/h 5.8mph /  9.3km/h 79% 0.00in /  0mm WeatherDisplay:10.37 W/m2 OVC
05:18 33.0 °F /  0.6 °C 26.9 °F /  -2.8 °C 30.18in /  1021.9hPa WSW 4.6mph /  7.4km/h 4.6mph /  7.4km/h 78% 0.00in /  0mm WeatherDisplay:10.37 W/m2 OVC
05:23 32.9 °F /  0.5 °C 26.8 °F /  -2.9 °C 30.18in /  1021.9hPa West 4.6mph /  7.4km/h 4.6mph /  7.4km/h 78% 0.00in /  0mm WeatherDisplay:10.37 W/m2 OVC
05:28 32.8 °F /  0.4 °C 26.7 °F /  -2.9 °C 30.18in /  1021.9hPa West 4.0mph /  6.4km/h 4.0mph /  6.4km/h 78% 0.00in /  0mm WeatherDisplay:10.37 W/m2 BKN
05:33 32.7 °F /  0.4 °C 26.9 °F /  -2.8 °C 30.17in /  1021.6hPa WSW 4.0mph /  6.4km/h 4.0mph /  6.4km/h 79% 0.00in /  0mm WeatherDisplay:10.37 W/m2 BKN
05:38 32.6 °F /  0.3 °C 27.4 °F /  -2.6 °C 30.17in /  1021.6hPa WSW 3.5mph /  5.6km/h 3.5mph /  5.6km/h 81% 0.00in /  0mm WeatherDisplay:10.37 W/m2 BKN
05:43 32.5 °F /  0.3 °C 27.3 °F /  -2.6 °C 30.17in /  1021.6hPa NW 3.5mph /  5.6km/h 3.5mph /  5.6km/h 81% 0.00in /  0mm WeatherDisplay:10.37 W/m2 BKN
05:48 32.3 °F /  0.2 °C 27.1 °F /  -2.7 °C 30.18in /  1021.9hPa NW 2.3mph /  3.7km/h 2.3mph /  3.7km/h 81% 0.00in /  0mm WeatherDisplay:10.37 W/m2 SCT
05:53 32.1 °F /  0.1 °C 27.2 °F /  -2.7 °C 30.18in /  1021.9hPa WNW 2.3mph /  3.7km/h 2.3mph /  3.7km/h 82% 0.00in /  0mm WeatherDisplay:10.37 W/m2 SCT
05:58 31.9 °F /  -0.1 °C 26.7 °F /  -2.9 °C 30.17in /  1021.6hPa WNW 2.3mph /  3.7km/h 2.3mph /  3.7km/h 81% 0.00in /  0mm WeatherDisplay:10.37 W/m2 SCT
06:03 31.9 °F /  -0.1 °C 27.0 °F /  -2.8 °C 30.17in /  1021.6hPa WNW 1.2mph /  1.9km/h 1.2mph /  1.9km/h 82% 0.00in /  0mm WeatherDisplay:10.37 W/m2 SCT
06:08 31.8 °F /  -0.1 °C 27.2 °F /  -2.7 °C 30.17in /  1021.6hPa WNW 2.3mph /  3.7km/h 2.3mph /  3.7km/h 83% 0.00in /  0mm WeatherDisplay:10.37 W/m2 CLR
06:13 31.7 °F /  -0.2 °C 26.2 °F /  -3.2 °C 30.18in /  1021.9hPa West 3.5mph /  5.6km/h 3.5mph /  5.6km/h 80% 0.00in /  0mm WeatherDisplay:10.37 W/m2 CLR
06:18 31.5 °F /  -0.3 °C 25.7 °F /  -3.5 °C 30.18in /  1021.9hPa West 2.3mph /  3.7km/h 2.3mph /  3.7km/h 79% 0.00in /  0mm WeatherDisplay:10.37 W/m2 CLR
06:23 31.5 °F /  -0.3 °C 25.4 °F /  -3.7 °C 30.17in /  1021.6hPa West 2.3mph /  3.7km/h 2.3mph /  3.7km/h 78% 0.00in /  0mm WeatherDisplay:10.37 W/m2 CLR
06:28 31.4 °F /  -0.3 °C 25.0 °F /  -3.9 °C 30.17in /  1021.6hPa West 2.3mph /  3.7km/h 2.3mph /  3.7km/h 77% 0.00in /  0mm WeatherDisplay:10.37 W/m2 CLR
06:33 31.2 °F /  -0.4 °C 24.8 °F /  -4 °C 30.17in /  1021.6hPa Calm   0.2mph /  0.3km/h 77% 0.00in /  0mm WeatherDisplay:10.37 W/m2 CLR
06:38 31.2 °F /  -0.4 °C 25.1 °F /  -3.8 °C 30.18in /  1021.9hPa West 1.2mph /  1.9km/h 1.2mph /  1.9km/h 78% 0.00in /  0mm WeatherDisplay:10.37 W/m2 CLR
06:39 31.2 °F /  -0.4 °C 25.1 °F /  -3.8 °C 30.18in /  1021.9hPa West 1.2mph /  1.9km/h 1.2mph /  1.9km/h 78% 0.00in /  0mm WeatherDisplay:10.37 W/m2 CLR
06:44 31.0 °F /  -0.6 °C 24.3 °F /  -4.3 °C 30.18in /  1021.9hPa WNW 3.5mph /  5.6km/h 3.5mph /  5.6km/h 76% 0.00in /  0mm WeatherDisplay:10.37 W/m2 SCT
06:49 30.9 °F /  -0.6 °C 23.3 °F /  -4.8 °C 30.18in /  1021.9hPa West 3.5mph /  5.6km/h 3.5mph /  5.6km/h 73% 0.00in /  0mm WeatherDisplay:10.37 W/m2 SCT
06:54 30.8 °F /  -0.7 °C 23.2 °F /  -4.9 °C 30.19in /  1022.2hPa West 2.3mph /  3.7km/h 2.3mph /  3.7km/h 73% 0.00in /  0mm WeatherDisplay:10.37 W/m2 SCT
06:59 30.8 °F /  -0.7 °C 22.8 °F /  -5.1 °C 30.19in /  1022.2hPa West 2.3mph /  3.7km/h 2.3mph /  3.7km/h 72% 0.00in /  0mm WeatherDisplay:10.37 W/m2 SCT
07:04 30.7 °F /  -0.7 °C 21.4 °F /  -5.9 °C 30.19in /  1022.2hPa North 4.0mph /  6.4km/h 4.0mph /  6.4km/h 68% 0.00in /  0mm WeatherDisplay:10.37 W/m2 SCT
07:09 30.7 °F /  -0.7 °C 20.7 °F /  -6.3 °C 30.19in /  1022.2hPa North 4.6mph /  7.4km/h 4.6mph /  7.4km/h 66% 0.00in /  0mm WeatherDisplay:10.37 W/m2 SCT
07:14 30.7 °F /  -0.7 °C 20.7 °F /  -6.3 °C 30.19in /  1022.2hPa North 4.6mph /  7.4km/h 4.6mph /  7.4km/h 66% 0.00in /  0mm WeatherDisplay:10.37 W/m2 SCT
07:19 30.6 °F /  -0.8 °C 21.3 °F /  -5.9 °C 30.20in /  1022.6hPa North 1.2mph /  1.9km/h   68% 0.00in /  0mm WeatherDisplay:10.37 W/m2 SCT
07:24 30.5 °F /  -0.8 °C 21.2 °F /  -6 °C 30.19in /  1022.2hPa NW 2.0mph /  3.2km/h 2.0mph /  3.2km/h 68% 0.00in /  0mm WeatherDisplay:10.37 W/m2 SCT
07:29 30.3 °F /  -0.9 °C 22.0 °F /  -5.6 °C 30.20in /  1022.6hPa NW 2.3mph /  3.7km/h 2.3mph /  3.7km/h 71% 0.00in /  0mm WeatherDisplay:10.37 W/m2 SCT
07:34 30.3 °F /  -0.9 °C 22.0 °F /  -5.6 °C 30.19in /  1022.2hPa NW 2.3mph /  3.7km/h 2.3mph /  3.7km/h 71% 0.00in /  0mm WeatherDisplay:10.37 W/m2 SCT
07:39 30.2 °F /  -1 °C 22.6 °F /  -5.2 °C 30.19in /  1022.2hPa NW 1.2mph /  1.9km/h   73% 0.00in /  0mm WeatherDisplay:10.37 W/m2 SCT
07:41 30.1 °F /  -1.1 °C 22.2 °F /  -5.4 °C 30.19in /  1022.2hPa Calm     72% 0.00in /  0mm WeatherDisplay:10.37 W/m2 SCT
07:46 29.9 °F /  -1.2 °C 22.6 °F /  -5.2 °C 30.19in /  1022.2hPa Calm     74% 0.00in /  0mm WeatherDisplay:10.37 W/m2 CLR
07:51 29.9 °F /  -1.2 °C 22.6 °F /  -5.2 °C 30.19in /  1022.2hPa NW 1.2mph /  1.9km/h 1.2mph /  1.9km/h 74% 0.00in /  0mm WeatherDisplay:10.37 W/m2 CLR
07:56 29.8 °F /  -1.2 °C 23.2 °F /  -4.9 °C 30.19in /  1022.2hPa Calm     76% 0.00in /  0mm WeatherDisplay:10.37 W/m2 CLR
08:01 29.8 °F /  -1.2 °C 23.2 °F /  -4.9 °C 30.20in /  1022.6hPa Calm     76% 0.00in /  0mm WeatherDisplay:10.37 W/m2 CLR
08:06 29.9 °F /  -1.2 °C 23.9 °F /  -4.5 °C 30.20in /  1022.6hPa NW 1.2mph /  1.9km/h 1.2mph /  1.9km/h 78% 0.00in /  0mm WeatherDisplay:10.37 W/m2 CLR
08:11 30.0 °F /  -1.1 °C 23.7 °F /  -4.6 °C 30.20in /  1022.6hPa WNW 3.0mph /  4.8km/h 3.0mph /  4.8km/h 77% 0.00in /  0mm WeatherDisplay:10.37 W/m2 CLR
08:16 30.3 °F /  -0.9 °C 24.0 °F /  -4.4 °C 30.20in /  1022.6hPa WNW 3.0mph /  4.8km/h 3.0mph /  4.8km/h 77% 0.00in /  0mm WeatherDisplay:10.37 W/m2 CLR
08:21 30.4 °F /  -0.9 °C 24.0 °F /  -4.4 °C 30.20in /  1022.6hPa WNW 1.0mph /  1.6km/h 3.0mph /  4.8km/h 77% 0.00in /  0mm WeatherDisplay:10.37 W/m2 CLR
08:26 30.5 °F /  -0.8 °C 24.8 °F /  -4 °C 30.20in /  1022.6hPa WNW 2.3mph /  3.7km/h 2.3mph /  3.7km/h 79% 0.00in /  0mm WeatherDisplay:10.37 W/m2 CLR
08:31 30.5 °F /  -0.8 °C 25.1 °F /  -3.8 °C 30.20in /  1022.6hPa WNW 3.0mph /  4.8km/h 3.0mph /  4.8km/h 80% 0.00in /  0mm WeatherDisplay:10.37 W/m2 CLR
08:36 30.5 °F /  -0.8 °C 25.1 °F /  -3.8 °C 30.20in /  1022.6hPa SW 3.5mph /  5.6km/h 3.5mph /  5.6km/h 80% 0.00in /  0mm WeatherDisplay:10.37 W/m2 CLR
08:41 30.5 °F /  -0.8 °C 25.1 °F /  -3.8 °C 30.20in /  1022.6hPa SW 3.5mph /  5.6km/h 3.5mph /  5.6km/h 80% 0.00in /  0mm WeatherDisplay:10.37 W/m2 CLR
08:46 30.5 °F /  -0.8 °C 24.8 °F /  -4 °C 30.20in /  1022.6hPa SW 4.0mph /  6.4km/h 4.0mph /  6.4km/h 79% 0.00in /  0mm WeatherDisplay:10.37 W/m2 CLR
08:51 30.5 °F /  -0.8 °C 24.8 °F /  -4 °C 30.20in /  1022.6hPa WSW 3.5mph /  5.6km/h 3.5mph /  5.6km/h 79% 0.00in /  0mm WeatherDisplay:10.37 W/m2 CLR
08:56 30.5 °F /  -0.8 °C 24.8 °F /  -4 °C 30.21in /  1022.9hPa SW 4.0mph /  6.4km/h 4.0mph /  6.4km/h 79% 0.00in /  0mm WeatherDisplay:10.37 W/m2 CLR
09:01 30.7 °F /  -0.7 °C 24.7 °F /  -4.1 °C 30.20in /  1022.6hPa SW 3.5mph /  5.6km/h 3.5mph /  5.6km/h 78% 0.00in /  0mm WeatherDisplay:10.37 W/m2 CLR
09:06 30.9 °F /  -0.6 °C 25.2 °F /  -3.8 °C 30.21in /  1022.9hPa SW 2.3mph /  3.7km/h 2.3mph /  3.7km/h 79% 0.00in /  0mm WeatherDisplay:10.37 W/m2 CLR
09:11 31.1 °F /  -0.5 °C 24.4 °F /  -4.2 °C 30.21in /  1022.9hPa SW 3.5mph /  5.6km/h 3.5mph /  5.6km/h 76% 0.00in /  0mm WeatherDisplay:10.37 W/m2 CLR
09:16 31.4 °F /  -0.3 °C 24.7 °F /  -4.1 °C 30.20in /  1022.6hPa SW 3.5mph /  5.6km/h 3.5mph /  5.6km/h 76% 0.00in /  0mm WeatherDisplay:10.37 W/m2 CLR
09:21 31.7 °F /  -0.2 °C 25.0 °F /  -3.9 °C 30.21in /  1022.9hPa SSW 3.5mph /  5.6km/h 3.5mph /  5.6km/h 76% 0.00in /  0mm WeatherDisplay:10.37 W/m2 CLR
09:26 31.7 °F /  -0.2 °C 24.0 °F /  -4.4 °C 30.20in /  1022.6hPa WSW 4.0mph /  6.4km/h 4.0mph /  6.4km/h 73% 0.00in /  0mm WeatherDisplay:10.37 W/m2 CLR
09:31 31.9 °F /  -0.1 °C 23.2 °F /  -4.9 °C 30.20in /  1022.6hPa WSW 4.0mph /  6.4km/h 4.0mph /  6.4km/h 70% 0.00in /  0mm WeatherDisplay:10.37 W/m2 CLR
09:36 32.3 °F /  0.2 °C 23.6 °F /  -4.7 °C 30.20in /  1022.6hPa South 4.0mph /  6.4km/h 4.0mph /  6.4km/h 70% 0.00in /  0mm WeatherDisplay:10.37 W/m2 CLR
09:41 32.6 °F /  0.3 °C 23.6 °F /  -4.7 °C 30.20in /  1022.6hPa WSW 3.5mph /  5.6km/h 3.7mph /  6km/h 69% 0.00in /  0mm WeatherDisplay:10.37 W/m2 CLR
09:46 32.8 °F /  0.4 °C 22.7 °F /  -5.2 °C 30.20in /  1022.6hPa West 6.0mph /  9.7km/h 6.0mph /  9.7km/h 66% 0.00in /  0mm WeatherDisplay:10.37 W/m2 CLR
09:51 32.8 °F /  0.4 °C 21.2 °F /  -6 °C 30.20in /  1022.6hPa West 6.9mph /  11.1km/h 6.9mph /  11.1km/h 62% 0.00in /  0mm WeatherDisplay:10.37 W/m2 CLR
09:56 32.9 °F /  0.5 °C 22.4 °F /  -5.3 °C 30.20in /  1022.6hPa West 6.9mph /  11.1km/h 6.9mph /  11.1km/h 65% 0.00in /  0mm WeatherDisplay:10.37 W/m2 CLR
10:01 33.3 °F /  0.7 °C 23.2 °F /  -4.9 °C 30.19in /  1022.2hPa West 3.5mph /  5.6km/h 3.5mph /  5.6km/h 66% 0.00in /  0mm WeatherDisplay:10.37 W/m2 CLR
10:06 33.7 °F /  0.9 °C 23.2 °F /  -4.9 °C 30.20in /  1022.6hPa WSW 3.5mph /  5.6km/h 3.9mph /  6.3km/h 65% 0.00in /  0mm WeatherDisplay:10.37 W/m2 CLR
10:11 33.9 °F /  1.1 °C 22.6 °F /  -5.2 °C 30.20in /  1022.6hPa SSW 5.8mph /  9.3km/h 5.8mph /  9.3km/h 63% 0.00in /  0mm WeatherDisplay:10.37 W/m2 CLR
10:16 34.2 °F /  1.2 °C 23.3 °F /  -4.8 °C 30.19in /  1022.2hPa West 3.5mph /  5.6km/h 3.5mph /  5.6km/h 64% 0.00in /  0mm WeatherDisplay:10.37 W/m2 CLR
10:21 34.2 °F /  1.2 °C 22.1 °F /  -5.5 °C 30.19in /  1022.2hPa SSW 6.0mph /  9.7km/h 6.0mph /  9.7km/h 61% 0.00in /  0mm WeatherDisplay:10.37 W/m2 CLR
10:26 34.1 °F /  1.2 °C 22.4 °F /  -5.3 °C 30.19in /  1022.2hPa SW 6.0mph /  9.7km/h 6.0mph /  9.7km/h 62% 0.00in /  0mm WeatherDisplay:10.37 W/m2 CLR
10:31 34.4 °F /  1.3 °C 22.3 °F /  -5.4 °C 30.19in /  1022.2hPa SSW 5.8mph /  9.3km/h 5.8mph /  9.3km/h 61% 0.00in /  0mm WeatherDisplay:10.37 W/m2 CLR
10:36 34.7 °F /  1.5 °C 22.2 °F /  -5.4 °C 30.20in /  1022.6hPa WSW 4.6mph /  7.4km/h 4.6mph /  7.4km/h 60% 0.00in /  0mm WeatherDisplay:10.37 W/m2 CLR
10:41 34.9 °F /  1.6 °C 22.8 °F /  -5.1 °C 30.20in /  1022.6hPa SSE 4.0mph /  6.4km/h 4.0mph /  6.4km/h 61% 0.00in /  0mm WeatherDisplay:10.37 W/m2 CLR
10:46 35.0 °F /  1.7 °C 22.9 °F /  -5.1 °C 30.21in /  1022.9hPa SSW 8.1mph /  13km/h 8.1mph /  13km/h 61% 0.00in /  0mm WeatherDisplay:10.37 W/m2 CLR
10:51 34.9 °F /  1.6 °C 22.8 °F /  -5.1 °C 30.20in /  1022.6hPa SW 9.2mph /  14.8km/h 9.2mph /  14.8km/h 61% 0.00in /  0mm WeatherDisplay:10.37 W/m2 CLR
10:56 35.0 °F /  1.7 °C 23.3 °F /  -4.8 °C 30.20in /  1022.6hPa WSW 6.9mph /  11.1km/h 6.9mph /  11.1km/h 62% 0.00in /  0mm WeatherDisplay:10.37 W/m2 CLR
11:01 35.5 °F /  1.9 °C 23.4 °F /  -4.8 °C 30.20in /  1022.6hPa SSW 7.0mph /  11.3km/h 7.0mph /  11.3km/h 61% 0.00in /  0mm WeatherDisplay:10.37 W/m2 CLR
11:06 35.2 °F /  1.8 °C 21.5 °F /  -5.8 °C 30.20in /  1022.6hPa WSW 9.0mph /  14.5km/h 9.0mph /  14.5km/h 57% 0.00in /  0mm WeatherDisplay:10.37 W/m2 CLR
11:11 34.8 °F /  1.6 °C 21.1 °F /  -6.1 °C 30.19in /  1022.2hPa SW 9.2mph /  14.8km/h 9.2mph /  14.8km/h 57% 0.00in /  0mm WeatherDisplay:10.37 W/m2 CLR
11:16 34.8 °F /  1.6 °C 21.1 °F /  -6.1 °C 30.19in /  1022.2hPa SSW 9.2mph /  14.8km/h 9.2mph /  14.8km/h 57% 0.00in /  0mm WeatherDisplay:10.37 W/m2 CLR
11:21 35.1 °F /  1.7 °C 21.4 °F /  -5.9 °C 30.19in /  1022.2hPa West 6.0mph /  9.7km/h 6.0mph /  9.7km/h 57% 0.00in /  0mm WeatherDisplay:10.37 W/m2 CLR
11:26 35.0 °F /  1.7 °C 20.9 °F /  -6.2 °C 30.19in /  1022.2hPa SSW 9.2mph /  14.8km/h 9.2mph /  14.8km/h 56% 0.00in /  0mm WeatherDisplay:10.37 W/m2 CLR
11:31 35.2 °F /  1.8 °C 21.5 °F /  -5.8 °C 30.19in /  1022.2hPa SW 6.9mph /  11.1km/h 6.9mph /  11.1km/h 57% 0.00in /  0mm WeatherDisplay:10.37 W/m2 CLR
11:36 35.4 °F /  1.9 °C 21.7 °F /  -5.7 °C 30.19in /  1022.2hPa SW 10.4mph /  16.7km/h 10.4mph /  16.7km/h 57% 0.00in /  0mm WeatherDisplay:10.37 W/m2 CLR
11:41 35.6 °F /  2 °C 21.9 °F /  -5.6 °C 30.19in /  1022.2hPa WSW 5.8mph /  9.3km/h 5.8mph /  9.3km/h 57% 0.00in /  0mm WeatherDisplay:10.37 W/m2 CLR
11:46 36.0 °F /  2.2 °C 22.2 °F /  -5.4 °C 30.19in /  1022.2hPa West 7.0mph /  11.3km/h 7.0mph /  11.3km/h 57% 0.00in /  0mm WeatherDisplay:10.37 W/m2 CLR
11:51 36.0 °F /  2.2 °C 21.4 °F /  -5.9 °C 30.19in /  1022.2hPa SW 6.9mph /  11.1km/h 6.9mph /  11.1km/h 55% 0.00in /  0mm WeatherDisplay:10.37 W/m2 CLR
11:56 36.0 °F /  2.2 °C 21.4 °F /  -5.9 °C 30.19in /  1022.2hPa West 9.2mph /  14.8km/h 9.2mph /  14.8km/h 55% 0.00in /  0mm WeatherDisplay:10.37 W/m2 CLR
12:01 35.9 °F /  2.2 °C 21.7 °F /  -5.7 °C 30.18in /  1021.9hPa WSW 7.0mph /  11.3km/h 7.0mph /  11.3km/h 56% 0.00in /  0mm WeatherDisplay:10.37 W/m2 CLR
12:06 35.7 °F /  2.1 °C 21.5 °F /  -5.8 °C 30.18in /  1021.9hPa WSW 6.9mph /  11.1km/h 6.9mph /  11.1km/h 56% 0.00in /  0mm WeatherDisplay:10.37 W/m2 CLR
12:11 35.7 °F /  2.1 °C 21.9 °F /  -5.6 °C 30.18in /  1021.9hPa WSW 6.9mph /  11.1km/h 6.9mph /  11.1km/h 57% 0.00in /  0mm WeatherDisplay:10.37 W/m2 CLR
12:16 35.7 °F /  2.1 °C 22.8 °F /  -5.1 °C 30.18in /  1021.9hPa SSW 11.5mph /  18.5km/h 11.5mph /  18.5km/h 59% 0.00in /  0mm WeatherDisplay:10.37 W/m2 CLR
12:21 35.9 °F /  2.2 °C 24.1 °F /  -4.4 °C 30.18in /  1021.9hPa SSW 5.8mph /  9.3km/h 5.8mph /  9.3km/h 62% 0.00in /  0mm WeatherDisplay:10.37 W/m2 CLR
12:26 36.1 °F /  2.3 °C 23.5 °F /  -4.7 °C 30.18in /  1021.9hPa South 5.8mph /  9.3km/h 5.8mph /  9.3km/h 60% 0.00in /  0mm WeatherDisplay:10.37 W/m2 CLR
12:31 36.2 °F /  2.3 °C 24.4 °F /  -4.2 °C 30.18in /  1021.9hPa South 4.0mph /  6.4km/h 4.0mph /  6.4km/h 62% 0.00in /  0mm WeatherDisplay:10.37 W/m2 CLR
12:36 36.3 °F /  2.4 °C 24.5 °F /  -4.2 °C 30.17in /  1021.6hPa SW 5.8mph /  9.3km/h 5.8mph /  9.3km/h 62% 0.00in /  0mm WeatherDisplay:10.37 W/m2 CLR
12:41 36.0 °F /  2.2 °C 22.6 °F /  -5.2 °C 30.17in /  1021.6hPa WSW 5.8mph /  9.3km/h 5.8mph /  9.3km/h 58% 0.00in /  0mm WeatherDisplay:10.37 W/m2 CLR
12:46 35.9 °F /  2.2 °C 23.0 °F /  -5 °C 30.17in /  1021.6hPa WSW 6.9mph /  11.1km/h 6.9mph /  11.1km/h 59% 0.00in /  0mm WeatherDisplay:10.37 W/m2 CLR
12:51 35.9 °F /  2.2 °C 23.0 °F /  -5 °C 30.18in /  1021.9hPa SW 8.1mph /  13km/h 8.1mph /  13km/h 59% 0.00in /  0mm WeatherDisplay:10.37 W/m2 CLR
12:56 36.0 °F /  2.2 °C 23.0 °F /  -5 °C 30.18in /  1021.9hPa South 8.1mph /  13km/h 8.1mph /  13km/h 59% 0.00in /  0mm WeatherDisplay:10.37 W/m2 CLR
13:01 35.9 °F /  2.2 °C 22.1 °F /  -5.5 °C 30.17in /  1021.6hPa SW 10.4mph /  16.7km/h 10.4mph /  16.7km/h 57% 0.00in /  0mm WeatherDisplay:10.37 W/m2 CLR
13:06 36.0 °F /  2.2 °C 22.6 °F /  -5.2 °C 30.17in /  1021.6hPa SSW 9.0mph /  14.5km/h 9.0mph /  14.5km/h 58% 0.00in /  0mm WeatherDisplay:10.37 W/m2 CLR
13:11 35.9 °F /  2.2 °C 22.1 °F /  -5.5 °C 30.17in /  1021.6hPa WSW 9.2mph /  14.8km/h 9.2mph /  14.8km/h 57% 0.00in /  0mm WeatherDisplay:10.37 W/m2 CLR
13:16 35.8 °F /  2.1 °C 22.0 °F /  -5.6 °C 30.17in /  1021.6hPa SW 9.2mph /  14.8km/h 9.2mph /  14.8km/h 57% 0.00in /  0mm WeatherDisplay:10.37 W/m2 CLR
13:21 35.8 °F /  2.1 °C 22.5 °F /  -5.3 °C 30.17in /  1021.6hPa WSW 9.2mph /  14.8km/h 9.2mph /  14.8km/h 58% 0.00in /  0mm WeatherDisplay:10.37 W/m2 CLR
13:26 35.9 °F /  2.2 °C 23.0 °F /  -5 °C 30.17in /  1021.6hPa SW 9.2mph /  14.8km/h 9.2mph /  14.8km/h 59% 0.00in /  0mm WeatherDisplay:10.37 W/m2 CLR
13:31 35.8 °F /  2.1 °C 22.5 °F /  -5.3 °C 30.17in /  1021.6hPa WSW 8.1mph /  13km/h 8.1mph /  13km/h 58% 0.00in /  0mm WeatherDisplay:10.37 W/m2 CLR
13:36 35.7 °F /  2.1 °C 22.4 °F /  -5.3 °C 30.17in /  1021.6hPa SW 9.2mph /  14.8km/h 9.2mph /  14.8km/h 58% 0.00in /  0mm WeatherDisplay:10.37 W/m2 CLR
13:41 35.6 °F /  2 °C 22.7 °F /  -5.2 °C 30.17in /  1021.6hPa South 9.2mph /  14.8km/h 9.2mph /  14.8km/h 59% 0.00in /  0mm WeatherDisplay:10.37 W/m2 CLR
13:46 35.6 °F /  2 °C 22.7 °F /  -5.2 °C 30.17in /  1021.6hPa SSW 9.2mph /  14.8km/h 9.2mph /  14.8km/h 59% 0.00in /  0mm WeatherDisplay:10.37 W/m2 CLR
13:47 35.6 °F /  2 °C 22.7 °F /  -5.2 °C 30.17in /  1021.6hPa SSW 9.2mph /  14.8km/h 9.2mph /  14.8km/h 59% 0.00in /  0mm WeatherDisplay:10.37 W/m2 CLR
13:52 35.5 °F /  1.9 °C 22.6 °F /  -5.2 °C 30.17in /  1021.6hPa SW 10.4mph /  16.7km/h 10.4mph /  16.7km/h 59% 0.00in /  0mm WeatherDisplay:10.37 W/m2 CLR
13:57 35.6 °F /  2 °C 23.1 °F /  -4.9 °C 30.17in /  1021.6hPa SW 10.4mph /  16.7km/h 10.4mph /  16.7km/h 60% 0.00in /  0mm WeatherDisplay:10.37 W/m2 CLR
14:02 35.7 °F /  2.1 °C 23.2 °F /  -4.9 °C 30.17in /  1021.6hPa West 9.0mph /  14.5km/h 9.0mph /  14.5km/h 60% 0.00in /  0mm WeatherDisplay:10.37 W/m2 CLR
14:07 35.6 °F /  2 °C 23.1 °F /  -4.9 °C 30.17in /  1021.6hPa South 9.2mph /  14.8km/h 9.2mph /  14.8km/h 60% 0.00in /  0mm WeatherDisplay:10.37 W/m2 CLR
14:12 35.6 °F /  2 °C 23.1 °F /  -4.9 °C 30.17in /  1021.6hPa West 9.2mph /  14.8km/h 9.2mph /  14.8km/h 60% 0.00in /  0mm WeatherDisplay:10.37 W/m2 CLR
14:17 35.7 °F /  2.1 °C 23.2 °F /  -4.9 °C 30.17in /  1021.6hPa SW 7.0mph /  11.3km/h 7.0mph /  11.3km/h 60% 0.00in /  0mm WeatherDisplay:10.37 W/m2 CLR
14:22 35.7 °F /  2.1 °C 22.8 °F /  -5.1 °C 30.17in /  1021.6hPa West 6.9mph /  11.1km/h 6.9mph /  11.1km/h 59% 0.00in /  0mm WeatherDisplay:10.37 W/m2 CLR
14:27 35.6 °F /  2 °C 22.7 °F /  -5.2 °C 30.17in /  1021.6hPa WSW 6.0mph /  9.7km/h 6.0mph /  9.7km/h 59% 0.00in /  0mm WeatherDisplay:10.37 W/m2 CLR
14:32 35.6 °F /  2 °C 23.1 °F /  -4.9 °C 30.17in /  1021.6hPa SW 9.0mph /  14.5km/h 9.0mph /  14.5km/h 60% 0.00in /  0mm WeatherDisplay:10.37 W/m2 CLR
14:37 35.6 °F /  2 °C 23.1 °F /  -4.9 °C 30.16in /  1021.2hPa WSW 9.2mph /  14.8km/h 9.2mph /  14.8km/h 60% 0.00in /  0mm WeatherDisplay:10.37 W/m2 CLR
14:42 35.7 °F /  2.1 °C 23.2 °F /  -4.9 °C 30.17in /  1021.6hPa SW 8.1mph /  13km/h 8.1mph /  13km/h 60% 0.00in /  0mm WeatherDisplay:10.37 W/m2 CLR
14:47 35.7 °F /  2.1 °C 23.2 °F /  -4.9 °C 30.17in /  1021.6hPa WSW 9.0mph /  14.5km/h 9.0mph /  14.5km/h 60% 0.00in /  0mm WeatherDisplay:10.37 W/m2 CLR
14:52 35.6 °F /  2 °C 23.1 °F /  -4.9 °C 30.17in /  1021.6hPa WSW 9.2mph /  14.8km/h 9.2mph /  14.8km/h 60% 0.00in /  0mm WeatherDisplay:10.37 W/m2 CLR
14:57 35.6 °F /  2 °C 23.1 °F /  -4.9 °C 30.17in /  1021.6hPa SW 6.9mph /  11.1km/h 6.9mph /  11.1km/h 60% 0.00in /  0mm WeatherDisplay:10.37 W/m2 CLR
15:02 35.7 °F /  2.1 °C 23.2 °F /  -4.9 °C 30.17in /  1021.6hPa SW 9.2mph /  14.8km/h 9.2mph /  14.8km/h 60% 0.00in /  0mm WeatherDisplay:10.37 W/m2 CLR
15:07 35.6 °F /  2 °C 23.5 °F /  -4.7 °C 30.16in /  1021.2hPa SW 6.9mph /  11.1km/h 6.9mph /  11.1km/h 61% 0.00in /  0mm WeatherDisplay:10.37 W/m2 CLR
15:12 35.5 °F /  1.9 °C 23.4 °F /  -4.8 °C 30.16in /  1021.2hPa SW 8.1mph /  13km/h 8.1mph /  13km/h 61% 0.00in /  0mm WeatherDisplay:10.37 W/m2 CLR
15:17 35.5 °F /  1.9 °C 23.4 °F /  -4.8 °C 30.17in /  1021.6hPa SW 6.9mph /  11.1km/h 6.9mph /  11.1km/h 61% 0.00in /  0mm WeatherDisplay:10.37 W/m2 CLR
15:22 35.4 °F /  1.9 °C 22.9 °F /  -5.1 °C 30.17in /  1021.6hPa SW 11.5mph /  18.5km/h 11.5mph /  18.5km/h 60% 0.00in /  0mm WeatherDisplay:10.37 W/m2 CLR
15:27 35.5 °F /  1.9 °C 23.4 °F /  -4.8 °C 30.17in /  1021.6hPa SW 11.5mph /  18.5km/h 11.5mph /  18.5km/h 61% 0.00in /  0mm WeatherDisplay:10.37 W/m2 CLR
15:32 35.4 °F /  1.9 °C 22.9 °F /  -5.1 °C 30.17in /  1021.6hPa SW 11.5mph /  18.5km/h 11.5mph /  18.5km/h 60% 0.00in /  0mm WeatherDisplay:10.37 W/m2 CLR
15:37 35.2 °F /  1.8 °C 22.7 °F /  -5.2 °C 30.17in /  1021.6hPa WSW 11.5mph /  18.5km/h 11.5mph /  18.5km/h 60% 0.00in /  0mm WeatherDisplay:10.37 W/m2 CLR
15:42 35.1 °F /  1.7 °C 22.6 °F /  -5.2 °C 30.17in /  1021.6hPa WSW 11.5mph /  18.5km/h 11.5mph /  18.5km/h 60% 0.00in /  0mm WeatherDisplay:10.37 W/m2 CLR
15:47 35.0 °F /  1.7 °C 22.5 °F /  -5.3 °C 30.17in /  1021.6hPa SW 6.9mph /  11.1km/h 6.9mph /  11.1km/h 60% 0.00in /  0mm WeatherDisplay:10.37 W/m2 CLR
15:52 35.0 °F /  1.7 °C 22.9 °F /  -5.1 °C 30.17in /  1021.6hPa WSW 5.8mph /  9.3km/h 5.8mph /  9.3km/h 61% 0.00in /  0mm WeatherDisplay:10.37 W/m2 CLR
15:57 35.0 °F /  1.7 °C 22.9 °F /  -5.1 °C 30.16in /  1021.2hPa SW 5.8mph /  9.3km/h 5.8mph /  9.3km/h 61% 0.00in /  0mm WeatherDisplay:10.37 W/m2 CLR
16:02 34.8 °F /  1.6 °C 22.7 °F /  -5.2 °C 30.16in /  1021.2hPa WSW 9.0mph /  14.5km/h 9.0mph /  14.5km/h 61% 0.00in /  0mm WeatherDisplay:10.37 W/m2 CLR
16:12 34.8 °F /  1.6 °C 22.7 °F /  -5.2 °C 30.16in /  1021.2hPa SW 6.9mph /  11.1km/h 6.9mph /  11.1km/h 61% 0.00in /  0mm WeatherDisplay:10.37 W/m2 CLR
16:17 34.8 °F /  1.6 °C 22.7 °F /  -5.2 °C 30.16in /  1021.2hPa SW 6.0mph /  9.7km/h 6.0mph /  9.7km/h 61% 0.00in /  0mm WeatherDisplay:10.37 W/m2 CLR
16:22 34.7 °F /  1.5 °C 22.6 °F /  -5.2 °C 30.17in /  1021.6hPa SSW 6.9mph /  11.1km/h 6.9mph /  11.1km/h 61% 0.00in /  0mm WeatherDisplay:10.37 W/m2 CLR
16:27 34.7 °F /  1.5 °C 22.6 °F /  -5.2 °C 30.17in /  1021.6hPa SW 6.9mph /  11.1km/h 6.9mph /  11.1km/h 61% 0.00in /  0mm WeatherDisplay:10.37 W/m2 CLR
16:32 34.7 °F /  1.5 °C 23.0 °F /  -5 °C 30.16in /  1021.2hPa SW 4.6mph /  7.4km/h 4.6mph /  7.4km/h 62% 0.00in /  0mm WeatherDisplay:10.37 W/m2 CLR
16:37 34.6 °F /  1.4 °C 22.9 °F /  -5.1 °C 30.16in /  1021.2hPa SW 6.0mph /  9.7km/h 6.0mph /  9.7km/h 62% 0.00in /  0mm WeatherDisplay:10.37 W/m2 CLR
16:42 34.6 °F /  1.4 °C 22.9 °F /  -5.1 °C 30.16in /  1021.2hPa SW 5.8mph /  9.3km/h 5.8mph /  9.3km/h 62% 0.00in /  0mm WeatherDisplay:10.37 W/m2 CLR
16:47 34.5 °F /  1.4 °C 22.8 °F /  -5.1 °C 30.16in /  1021.2hPa SW 5.8mph /  9.3km/h 5.8mph /  9.3km/h 62% 0.00in /  0mm WeatherDisplay:10.37 W/m2 CLR
16:52 34.4 °F /  1.3 °C 22.7 °F /  -5.2 °C 30.16in /  1021.2hPa SW 5.0mph /  8km/h 5.0mph /  8km/h 62% 0.00in /  0mm WeatherDisplay:10.37 W/m2 CLR
16:57 34.4 °F /  1.3 °C 22.7 °F /  -5.2 °C 30.16in /  1021.2hPa SW 4.6mph /  7.4km/h 4.6mph /  7.4km/h 62% 0.00in /  0mm WeatherDisplay:10.37 W/m2 CLR
16:58 34.4 °F /  1.3 °C 22.7 °F /  -5.2 °C 30.16in /  1021.2hPa SW 4.6mph /  7.4km/h 4.6mph /  7.4km/h 62% 0.00in /  0mm WeatherDisplay:10.37 W/m2 CLR
17:03 34.3 °F /  1.3 °C 23.0 °F /  -5 °C 30.15in /  1020.9hPa WSW 7.0mph /  11.3km/h 7.0mph /  11.3km/h 63% 0.00in /  0mm WeatherDisplay:10.37 W/m2 CLR
17:08 34.2 °F /  1.2 °C 22.5 °F /  -5.3 °C 30.16in /  1021.2hPa WSW 4.6mph /  7.4km/h 4.6mph /  7.4km/h 62% 0.00in /  0mm WeatherDisplay:10.37 W/m2 CLR
17:13 34.2 °F /  1.2 °C 22.9 °F /  -5.1 °C 30.15in /  1020.9hPa SW 3.5mph /  5.6km/h 3.5mph /  5.6km/h 63% 0.00in /  0mm WeatherDisplay:10.37 W/m2 CLR
17:18 34.0 °F /  1.1 °C 22.7 °F /  -5.2 °C 30.16in /  1021.2hPa WSW 3.5mph /  5.6km/h 3.5mph /  5.6km/h 63% 0.00in /  0mm WeatherDisplay:10.37 W/m2 CLR
17:23 33.9 °F /  1.1 °C 22.6 °F /  -5.2 °C 30.16in /  1021.2hPa SW 5.8mph /  9.3km/h 5.8mph /  9.3km/h 63% 0.00in /  0mm WeatherDisplay:10.37 W/m2 CLR
17:28 33.8 °F /  1 °C 22.9 °F /  -5.1 °C 30.16in /  1021.2hPa WSW 3.5mph /  5.6km/h 3.5mph /  5.6km/h 64% 0.00in /  0mm WeatherDisplay:10.37 W/m2 CLR
17:33 33.7 °F /  0.9 °C 22.8 °F /  -5.1 °C 30.16in /  1021.2hPa SW 3.5mph /  5.6km/h 3.5mph /  5.6km/h 64% 0.00in /  0mm WeatherDisplay:10.37 W/m2 CLR
17:38 33.6 °F /  0.9 °C 22.7 °F /  -5.2 °C 30.16in /  1021.2hPa SW 3.5mph /  5.6km/h 3.5mph /  5.6km/h 64% 0.00in /  0mm WeatherDisplay:10.37 W/m2 CLR
17:43 33.6 °F /  0.9 °C 22.7 °F /  -5.2 °C 30.16in /  1021.2hPa SW 4.6mph /  7.4km/h 4.6mph /  7.4km/h 64% 0.00in /  0mm WeatherDisplay:10.37 W/m2 CLR
17:48 33.5 °F /  0.8 °C 23.4 °F /  -4.8 °C 30.16in /  1021.2hPa SW 3.5mph /  5.6km/h 3.5mph /  5.6km/h 66% 0.00in /  0mm WeatherDisplay:10.37 W/m2 CLR
17:53 33.5 °F /  0.8 °C 23.0 °F /  -5 °C 30.16in /  1021.2hPa SSW 3.5mph /  5.6km/h 3.5mph /  5.6km/h 65% 0.00in /  0mm WeatherDisplay:10.37 W/m2 CLR
17:58 33.5 °F /  0.8 °C 23.4 °F /  -4.8 °C 30.16in /  1021.2hPa WSW 3.5mph /  5.6km/h 3.5mph /  5.6km/h 66% 0.00in /  0mm WeatherDisplay:10.37 W/m2 CLR
18:03 33.5 °F /  0.8 °C 23.7 °F /  -4.6 °C 30.17in /  1021.6hPa WSW 4.0mph /  6.4km/h 4.0mph /  6.4km/h 67% 0.00in /  0mm WeatherDisplay:10.37 W/m2 CLR
18:08 33.4 °F /  0.8 °C 23.6 °F /  -4.7 °C 30.16in /  1021.2hPa SW 4.6mph /  7.4km/h 4.6mph /  7.4km/h 67% 0.00in /  0mm WeatherDisplay:10.37 W/m2 CLR
18:13 33.4 °F /  0.8 °C 23.6 °F /  -4.7 °C 30.16in /  1021.2hPa SSW 4.6mph /  7.4km/h 4.6mph /  7.4km/h 67% 0.00in /  0mm WeatherDisplay:10.37 W/m2 CLR
18:18 33.3 °F /  0.7 °C 23.9 °F /  -4.5 °C 30.17in /  1021.6hPa WSW 3.5mph /  5.6km/h 3.5mph /  5.6km/h 68% 0.00in /  0mm WeatherDisplay:10.37 W/m2 CLR
18:23 33.3 °F /  0.7 °C 23.9 °F /  -4.5 °C 30.17in /  1021.6hPa SW 3.5mph /  5.6km/h 3.5mph /  5.6km/h 68% 0.00in /  0mm WeatherDisplay:10.37 W/m2 CLR
18:28 33.2 °F /  0.7 °C 23.8 °F /  -4.6 °C 30.17in /  1021.6hPa WSW 3.5mph /  5.6km/h 3.5mph /  5.6km/h 68% 0.00in /  0mm WeatherDisplay:10.37 W/m2 CLR
18:33 33.2 °F /  0.7 °C 24.1 °F /  -4.4 °C 30.17in /  1021.6hPa SW 5.0mph /  8km/h 5.0mph /  8km/h 69% 0.00in /  0mm WeatherDisplay:10.37 W/m2 CLR
18:38 33.2 °F /  0.7 °C 23.8 °F /  -4.6 °C 30.17in /  1021.6hPa WSW 4.6mph /  7.4km/h 4.6mph /  7.4km/h 68% 0.00in /  0mm WeatherDisplay:10.37 W/m2 CLR
18:43 33.1 °F /  0.6 °C 24.0 °F /  -4.4 °C 30.17in /  1021.6hPa WSW 4.6mph /  7.4km/h 4.6mph /  7.4km/h 69% 0.00in /  0mm WeatherDisplay:10.37 W/m2 CLR
18:48 33.0 °F /  0.6 °C 24.3 °F /  -4.3 °C 30.18in /  1021.9hPa SW 3.5mph /  5.6km/h 3.5mph /  5.6km/h 70% 0.00in /  0mm WeatherDisplay:10.37 W/m2 CLR
18:53 33.0 °F /  0.6 °C 23.9 °F /  -4.5 °C 30.18in /  1021.9hPa West 7.0mph /  11.3km/h 7.0mph /  11.3km/h 69% 0.00in /  0mm WeatherDisplay:10.37 W/m2 CLR
18:58 33.0 °F /  0.6 °C 23.9 °F /  -4.5 °C 30.18in /  1021.9hPa SW 4.6mph /  7.4km/h 4.6mph /  7.4km/h 69% 0.00in /  0mm WeatherDisplay:10.37 W/m2 CLR
19:03 33.0 °F /  0.6 °C 23.9 °F /  -4.5 °C 30.18in /  1021.9hPa WSW 4.0mph /  6.4km/h 4.0mph /  6.4km/h 69% 0.00in /  0mm WeatherDisplay:10.37 W/m2 CLR
19:08 32.9 °F /  0.5 °C 24.2 °F /  -4.3 °C 30.19in /  1022.2hPa SW 4.0mph /  6.4km/h 4.0mph /  6.4km/h 70% 0.00in /  0mm WeatherDisplay:10.37 W/m2 CLR
19:13 33.0 °F /  0.6 °C 23.9 °F /  -4.5 °C 30.18in /  1021.9hPa SW 5.8mph /  9.3km/h 5.8mph /  9.3km/h 69% 0.00in /  0mm WeatherDisplay:10.37 W/m2 CLR
19:18 33.0 °F /  0.6 °C 23.9 °F /  -4.5 °C 30.18in /  1021.9hPa WSW 5.0mph /  8km/h 5.0mph /  8km/h 69% 0.00in /  0mm WeatherDisplay:10.37 W/m2 CLR
19:23 32.9 °F /  0.5 °C 23.8 °F /  -4.6 °C 30.18in /  1021.9hPa WSW 3.5mph /  5.6km/h 3.5mph /  5.6km/h 69% 0.00in /  0mm WeatherDisplay:10.37 W/m2 CLR
19:28 33.0 °F /  0.6 °C 23.9 °F /  -4.5 °C 30.18in /  1021.9hPa West 4.0mph /  6.4km/h 4.0mph /  6.4km/h 69% 0.00in /  0mm WeatherDisplay:10.37 W/m2 CLR
19:33 33.0 °F /  0.6 °C 23.9 °F /  -4.5 °C 30.18in /  1021.9hPa West 3.5mph /  5.6km/h 3.5mph /  5.6km/h 69% 0.00in /  0mm WeatherDisplay:10.37 W/m2 CLR
19:38 32.9 °F /  0.5 °C 24.2 °F /  -4.3 °C 30.18in /  1021.9hPa WSW 3.5mph /  5.6km/h 3.5mph /  5.6km/h 70% 0.00in /  0mm WeatherDisplay:10.37 W/m2 CLR
19:43 32.9 °F /  0.5 °C 24.2 °F /  -4.3 °C 30.18in /  1021.9hPa WSW 3.5mph /  5.6km/h 3.5mph /  5.6km/h 70% 0.00in /  0mm WeatherDisplay:10.37 W/m2 CLR
19:48 32.9 °F /  0.5 °C 24.2 °F /  -4.3 °C 30.18in /  1021.9hPa WSW 4.6mph /  7.4km/h 4.6mph /  7.4km/h 70% 0.00in /  0mm WeatherDisplay:10.37 W/m2 CLR
19:53 32.9 °F /  0.5 °C 24.2 °F /  -4.3 °C 30.18in /  1021.9hPa SW 4.6mph /  7.4km/h 4.6mph /  7.4km/h 70% 0.00in /  0mm WeatherDisplay:10.37 W/m2 CLR
19:58 32.9 °F /  0.5 °C 24.2 °F /  -4.3 °C 30.19in /  1022.2hPa WSW 3.5mph /  5.6km/h 3.5mph /  5.6km/h 70% 0.00in /  0mm WeatherDisplay:10.37 W/m2 CLR
20:03 32.9 °F /  0.5 °C 24.2 °F /  -4.3 °C 30.18in /  1021.9hPa WSW 3.5mph /  5.6km/h 3.5mph /  5.6km/h 70% 0.00in /  0mm WeatherDisplay:10.37 W/m2 CLR
20:08 32.8 °F /  0.4 °C 24.1 °F /  -4.4 °C 30.18in /  1021.9hPa SW 4.0mph /  6.4km/h 4.0mph /  6.4km/h 70% 0.00in /  0mm WeatherDisplay:10.37 W/m2 CLR
20:13 32.9 °F /  0.5 °C 24.2 °F /  -4.3 °C 30.19in /  1022.2hPa SSW 3.5mph /  5.6km/h 3.5mph /  5.6km/h 70% 0.00in /  0mm WeatherDisplay:10.37 W/m2 CLR
20:18 32.9 °F /  0.5 °C 24.2 °F /  -4.3 °C 30.18in /  1021.9hPa SW 3.0mph /  4.8km/h 3.0mph /  4.8km/h 70% 0.00in /  0mm WeatherDisplay:10.37 W/m2 CLR
20:23 32.9 °F /  0.5 °C 24.2 °F /  -4.3 °C 30.18in /  1021.9hPa WSW 4.0mph /  6.4km/h 4.0mph /  6.4km/h 70% 0.00in /  0mm WeatherDisplay:10.37 W/m2 CLR
20:28 32.9 °F /  0.5 °C 24.2 °F /  -4.3 °C 30.18in /  1021.9hPa SW 4.0mph /  6.4km/h 4.0mph /  6.4km/h 70% 0.00in /  0mm WeatherDisplay:10.37 W/m2 CLR
20:33 32.9 °F /  0.5 °C 23.8 °F /  -4.6 °C 30.19in /  1022.2hPa SW 3.5mph /  5.6km/h 3.5mph /  5.6km/h 69% 0.00in /  0mm WeatherDisplay:10.37 W/m2 CLR
20:38 32.9 °F /  0.5 °C 24.2 °F /  -4.3 °C 30.18in /  1021.9hPa SW 3.5mph /  5.6km/h 3.5mph /  5.6km/h 70% 0.00in /  0mm WeatherDisplay:10.37 W/m2 CLR
20:43 32.9 °F /  0.5 °C 23.8 °F /  -4.6 °C 30.19in /  1022.2hPa SW 3.5mph /  5.6km/h 3.5mph /  5.6km/h 69% 0.00in /  0mm WeatherDisplay:10.37 W/m2 CLR
20:48 33.0 °F /  0.6 °C 23.9 °F /  -4.5 °C 30.19in /  1022.2hPa WSW 3.5mph /  5.6km/h 3.5mph /  5.6km/h 69% 0.00in /  0mm WeatherDisplay:10.37 W/m2 CLR
20:53 33.0 °F /  0.6 °C 24.3 °F /  -4.3 °C 30.19in /  1022.2hPa West 3.5mph /  5.6km/h 3.5mph /  5.6km/h 70% 0.00in /  0mm WeatherDisplay:10.37 W/m2 CLR
20:58 32.9 °F /  0.5 °C 23.8 °F /  -4.6 °C 30.18in /  1021.9hPa SW 3.5mph /  5.6km/h 3.5mph /  5.6km/h 69% 0.00in /  0mm WeatherDisplay:10.37 W/m2 CLR
21:03 33.0 °F /  0.6 °C 24.3 °F /  -4.3 °C 30.18in /  1021.9hPa SW 3.5mph /  5.6km/h 3.5mph /  5.6km/h 70% 0.00in /  0mm WeatherDisplay:10.37 W/m2 CLR
21:08 32.9 °F /  0.5 °C 24.2 °F /  -4.3 °C 30.19in /  1022.2hPa SW 3.5mph /  5.6km/h 3.5mph /  5.6km/h 70% 0.00in /  0mm WeatherDisplay:10.37 W/m2 CLR
21:13 32.9 °F /  0.5 °C 24.2 °F /  -4.3 °C 30.19in /  1022.2hPa WSW 3.0mph /  4.8km/h 3.0mph /  4.8km/h 70% 0.00in /  0mm WeatherDisplay:10.37 W/m2 CLR
21:18 32.9 °F /  0.5 °C 24.2 °F /  -4.3 °C 30.19in /  1022.2hPa SW 3.5mph /  5.6km/h 3.5mph /  5.6km/h 70% 0.00in /  0mm WeatherDisplay:10.37 W/m2 CLR
21:23 32.9 °F /  0.5 °C 24.2 °F /  -4.3 °C 30.20in /  1022.6hPa SW 3.5mph /  5.6km/h 3.5mph /  5.6km/h 70% 0.00in /  0mm WeatherDisplay:10.37 W/m2 CLR
21:28 32.9 °F /  0.5 °C 24.2 °F /  -4.3 °C 30.20in /  1022.6hPa SW 3.5mph /  5.6km/h 3.5mph /  5.6km/h 70% 0.00in /  0mm WeatherDisplay:10.37 W/m2 CLR
21:33 32.8 °F /  0.4 °C 24.4 °F /  -4.2 °C 30.20in /  1022.6hPa WSW 3.5mph /  5.6km/h 3.5mph /  5.6km/h 71% 0.00in /  0mm WeatherDisplay:10.37 W/m2 CLR
21:38 32.8 °F /  0.4 °C 24.4 °F /  -4.2 °C 30.20in /  1022.6hPa WSW 3.5mph /  5.6km/h 3.5mph /  5.6km/h 71% 0.00in /  0mm WeatherDisplay:10.37 W/m2 CLR
21:43 32.8 °F /  0.4 °C 24.4 °F /  -4.2 °C 30.21in /  1022.9hPa WSW 3.5mph /  5.6km/h 3.5mph /  5.6km/h 71% 0.00in /  0mm WeatherDisplay:10.37 W/m2 CLR
21:48 32.8 °F /  0.4 °C 24.8 °F /  -4 °C 30.21in /  1022.9hPa SW 3.5mph /  5.6km/h 3.5mph /  5.6km/h 72% 0.00in /  0mm WeatherDisplay:10.37 W/m2 CLR
21:53 32.8 °F /  0.4 °C 24.8 °F /  -4 °C 30.21in /  1022.9hPa SW 3.5mph /  5.6km/h 3.5mph /  5.6km/h 72% 0.00in /  0mm WeatherDisplay:10.37 W/m2 CLR
21:58 32.8 °F /  0.4 °C 24.8 °F /  -4 °C 30.21in /  1022.9hPa SW 4.6mph /  7.4km/h 4.6mph /  7.4km/h 72% 0.00in /  0mm WeatherDisplay:10.37 W/m2 CLR
22:03 32.8 °F /  0.4 °C 24.8 °F /  -4 °C 30.21in /  1022.9hPa SW 5.0mph /  8km/h 5.0mph /  8km/h 72% 0.00in /  0mm WeatherDisplay:10.37 W/m2 CLR
22:08 32.8 °F /  0.4 °C 24.8 °F /  -4 °C 30.22in /  1023.2hPa SW 3.5mph /  5.6km/h 3.5mph /  5.6km/h 72% 0.00in /  0mm WeatherDisplay:10.37 W/m2 CLR
22:14 32.8 °F /  0.4 °C 25.1 °F /  -3.8 °C 30.22in /  1023.2hPa SW 3.5mph /  5.6km/h 3.5mph /  5.6km/h 73% 0.00in /  0mm WeatherDisplay:10.37 W/m2 CLR
22:19 32.8 °F /  0.4 °C 25.1 °F /  -3.8 °C 30.23in /  1023.6hPa SSW 6.0mph /  9.7km/h 6.0mph /  9.7km/h 73% 0.00in /  0mm WeatherDisplay:10.37 W/m2 CLR
22:22 32.8 °F /  0.4 °C 25.1 °F /  -3.8 °C 30.22in /  1023.2hPa WSW 4.6mph /  7.4km/h 4.6mph /  7.4km/h 73% 0.00in /  0mm WeatherDisplay:10.37 W/m2 CLR
22:23 32.8 °F /  0.4 °C 25.1 °F /  -3.8 °C 30.22in /  1023.2hPa WSW 4.6mph /  7.4km/h 4.6mph /  7.4km/h 73% 0.00in /  0mm WeatherDisplay:10.37 W/m2 CLR
22:28 32.8 °F /  0.4 °C 25.1 °F /  -3.8 °C 30.22in /  1023.2hPa SW 4.6mph /  7.4km/h 4.6mph /  7.4km/h 73% 0.00in /  0mm WeatherDisplay:10.37 W/m2 CLR
22:33 32.8 °F /  0.4 °C 25.1 °F /  -3.8 °C 30.22in /  1023.2hPa WSW 4.0mph /  6.4km/h 4.0mph /  6.4km/h 73% 0.00in /  0mm WeatherDisplay:10.37 W/m2 CLR
22:38 32.8 °F /  0.4 °C 25.1 °F /  -3.8 °C 30.23in /  1023.6hPa WSW 3.5mph /  5.6km/h 3.5mph /  5.6km/h 73% 0.00in /  0mm WeatherDisplay:10.37 W/m2 CLR
22:43 32.8 °F /  0.4 °C 25.1 °F /  -3.8 °C 30.23in /  1023.6hPa SW 3.5mph /  5.6km/h 3.5mph /  5.6km/h 73% 0.00in /  0mm WeatherDisplay:10.37 W/m2 CLR
22:48 32.8 °F /  0.4 °C 25.4 °F /  -3.7 °C 30.22in /  1023.2hPa WSW 3.5mph /  5.6km/h 3.5mph /  5.6km/h 74% 0.00in /  0mm WeatherDisplay:10.37 W/m2 CLR
22:53 32.7 °F /  0.4 °C 25.3 °F /  -3.7 °C 30.22in /  1023.2hPa SW 3.5mph /  5.6km/h 3.5mph /  5.6km/h 74% 0.00in /  0mm WeatherDisplay:10.37 W/m2 CLR
22:58 32.6 °F /  0.3 °C 25.2 °F /  -3.8 °C 30.22in /  1023.2hPa WSW 3.5mph /  5.6km/h 3.5mph /  5.6km/h 74% 0.00in /  0mm WeatherDisplay:10.37 W/m2 CLR
23:03 32.7 °F /  0.4 °C 25.3 °F /  -3.7 °C 30.22in /  1023.2hPa WSW 4.6mph /  7.4km/h 4.6mph /  7.4km/h 74% 0.00in /  0mm WeatherDisplay:10.37 W/m2 CLR
23:08 32.7 °F /  0.4 °C 25.3 °F /  -3.7 °C 30.22in /  1023.2hPa SW 3.5mph /  5.6km/h 3.5mph /  5.6km/h 74% 0.00in /  0mm WeatherDisplay:10.37 W/m2 CLR
23:13 32.6 °F /  0.3 °C 25.2 °F /  -3.8 °C 30.22in /  1023.2hPa SW 3.5mph /  5.6km/h 3.5mph /  5.6km/h 74% 0.00in /  0mm WeatherDisplay:10.37 W/m2 CLR
23:18 32.6 °F /  0.3 °C 25.2 °F /  -3.8 °C 30.22in /  1023.2hPa WSW 4.6mph /  7.4km/h 4.6mph /  7.4km/h 74% 0.00in /  0mm WeatherDisplay:10.37 W/m2 CLR
23:23 32.6 °F /  0.3 °C 25.2 °F /  -3.8 °C 30.22in /  1023.2hPa SW 6.0mph /  9.7km/h 6.0mph /  9.7km/h 74% 0.00in /  0mm WeatherDisplay:10.37 W/m2 CLR
23:28 32.5 °F /  0.3 °C 25.1 °F /  -3.8 °C 30.22in /  1023.2hPa SW 5.8mph /  9.3km/h 5.8mph /  9.3km/h 74% 0.00in /  0mm WeatherDisplay:10.37 W/m2 CLR
23:33 32.5 °F /  0.3 °C 25.5 °F /  -3.6 °C 30.22in /  1023.2hPa SW 5.8mph /  9.3km/h 5.8mph /  9.3km/h 75% 0.00in /  0mm WeatherDisplay:10.37 W/m2 CLR
23:38 32.4 °F /  0.2 °C 25.4 °F /  -3.7 °C 30.22in /  1023.2hPa SW 4.6mph /  7.4km/h 4.6mph /  7.4km/h 75% 0.00in /  0mm WeatherDisplay:10.37 W/m2 CLR
23:43 32.4 °F /  0.2 °C 25.7 °F /  -3.5 °C 30.22in /  1023.2hPa WSW 3.5mph /  5.6km/h 3.5mph /  5.6km/h 76% 0.00in /  0mm WeatherDisplay:10.37 W/m2 CLR
23:48 32.3 °F /  0.2 °C 25.6 °F /  -3.6 °C 30.21in /  1022.9hPa SW 3.5mph /  5.6km/h 3.5mph /  5.6km/h 76% 0.00in /  0mm WeatherDisplay:10.37 W/m2 CLR
23:53 32.3 °F /  0.2 °C 25.6 °F /  -3.6 °C 30.21in /  1022.9hPa SW 3.5mph /  5.6km/h 3.5mph /  5.6km/h 76% 0.00in /  0mm WeatherDisplay:10.37 W/m2 CLR
23:58 32.2 °F /  0.1 °C 25.5 °F /  -3.6 °C 30.21in /  1022.9hPa WSW 3.5mph /  5.6km/h 3.5mph /  5.6km/h 76% 0.00in /  0mm WeatherDisplay:10.37 W/m2 CLR
Smyth Weather
Compliments of Weather Underground - 3 mb